East Weston, Colorado
Current Conditions -  °F | °C
As of 3:52 PM on Tuesday 25 Nov 2014 (Local Time) from KVTP Reporting Station
Clear Clear  
Wind Chill: 10°   Ceiling: Unl
Heat Index: 23°   Visibility: 10mi
Dew Point: 10°   Wind: 16mph
Humidity: 59%   Direction: 210°SSW
Pressure: 30.04"   Gusts: 36mph
Location:  37.1566°N, 104.956°W
Report Text: KVTP 252252Z AUTO 21014G31KT 130V230 10SM CLR M05/M12 A3004 RMK AO2
Loading
Personal Weather Stations






























Interactive Weather Map New forecast layout! Learn more

10-Day Weather Forecast

Advertisements
Track Severe Weather on mobile